sensor_id;sensor_type;location;lat;lon;timestamp;temperature;humidity
41557;DHT22;27720;51.992;5.890;2023-07-31T07:32:59;18.10;99.90
41557;DHT22;27720;51.992;5.890;2023-07-31T07:53:38;18.30;99.90
41557;DHT22;27720;51.992;5.890;2023-07-31T08:00:48;18.00;99.90
41557;DHT22;27720;51.992;5.890;2023-07-31T08:03:58;18.10;99.90
41557;DHT22;27720;51.992;5.890;2023-07-31T08:23:42;18.30;99.90
41557;DHT22;27720;51.992;5.890;2023-07-31T08:26:30;18.30;99.90
41557;DHT22;27720;51.992;5.890;2023-07-31T08:32:02;18.40;99.90
41557;DHT22;27720;51.992;5.890;2023-07-31T08:34:28;18.30;99.90
41557;DHT22;27720;51.992;5.890;2023-07-31T08:37:05;18.30;99.90
41557;DHT22;27720;51.992;5.890;2023-07-31T08:44:18;18.50;99.90
41557;DHT22;27720;51.992;5.890;2023-07-31T08:55:38;18.50;99.90
41557;DHT22;27720;51.992;5.890;2023-07-31T09:08:32;18.50;99.90
41557;DHT22;27720;51.992;5.890;2023-07-31T09:11:45;18.50;99.90
41557;DHT22;27720;51.992;5.890;2023-07-31T09:14:46;18.60;99.90
41557;DHT22;27720;51.992;5.890;2023-07-31T09:17:12;18.60;99.90
41557;DHT22;27720;51.992;5.890;2023-07-31T09:19:42;18.60;99.90
41557;DHT22;27720;51.992;5.890;2023-07-31T12:51:50;17.40;99.90
41557;DHT22;27720;51.992;5.890;2023-07-31T13:01:26;18.30;99.90
41557;DHT22;27720;51.992;5.890;2023-07-31T13:07:40;18.90;99.90
41557;DHT22;27720;51.992;5.890;2023-07-31T13:16:28;19.30;99.90
41557;DHT22;27720;51.992;5.890;2023-07-31T13:28:40;19.60;99.90
41557;DHT22;27720;51.992;5.890;2023-07-31T13:37:05;19.70;99.90
41557;DHT22;27720;51.992;5.890;2023-07-31T13:39:52;19.70;99.90
41557;DHT22;27720;51.992;5.890;2023-07-31T13:42:18;19.80;99.90
41557;DHT22;27720;51.992;5.890;2023-07-31T13:44:48;19.80;99.90
41557;DHT22;27720;51.992;5.890;2023-07-31T13:47:14;19.90;99.90
41557;DHT22;27720;51.992;5.890;2023-07-31T13:49:42;19.90;99.90
41557;DHT22;27720;51.992;5.890;2023-07-31T13:53:09;19.90;99.90
41557;DHT22;27720;51.992;5.890;2023-07-31T13:55:36;19.90;99.90
41557;DHT22;27720;51.992;5.890;2023-07-31T13:58:06;19.90;99.90
41557;DHT22;27720;51.992;5.890;2023-07-31T14:00:35;19.90;99.90
41557;DHT22;27720;51.992;5.890;2023-07-31T14:03:09;20.00;99.90
41557;DHT22;27720;51.992;5.890;2023-07-31T14:05:39;19.90;99.90
41557;DHT22;27720;51.992;5.890;2023-07-31T14:11:12;20.00;99.90
41557;DHT22;27720;51.992;5.890;2023-07-31T14:14:18;20.00;99.90
41557;DHT22;27720;51.992;5.890;2023-07-31T14:17:21;20.00;99.90
41557;DHT22;27720;51.992;5.890;2023-07-31T14:22:31;19.90;99.90
41557;DHT22;27720;51.992;5.890;2023-07-31T14:25:07;19.90;99.90
41557;DHT22;27720;51.992;5.890;2023-07-31T14:28:25;19.90;99.90
41557;DHT22;27720;51.992;5.890;2023-07-31T14:30:51;19.90;99.90
41557;DHT22;27720;51.992;5.890;2023-07-31T14:33:35;19.90;99.90
41557;DHT22;27720;51.992;5.890;2023-07-31T14:36:03;19.90;99.90
41557;DHT22;27720;51.992;5.890;2023-07-31T14:38:29;20.00;99.90
41557;DHT22;27720;51.992;5.890;2023-07-31T14:40:55;20.00;99.90
41557;DHT22;27720;51.992;5.890;2023-07-31T14:43:21;20.00;99.90
41557;DHT22;27720;51.992;5.890;2023-07-31T14:45:47;20.00;99.90
41557;DHT22;27720;51.992;5.890;2023-07-31T14:48:14;20.00;99.90
41557;DHT22;27720;51.992;5.890;2023-07-31T14:50:42;20.00;99.90
41557;DHT22;27720;51.992;5.890;2023-07-31T14:53:08;20.00;99.90
41557;DHT22;27720;51.992;5.890;2023-07-31T14:55:34;20.00;99.90
41557;DHT22;27720;51.992;5.890;2023-07-31T14:58:00;19.90;99.90
41557;DHT22;27720;51.992;5.890;2023-07-31T15:00:25;19.90;99.90
41557;DHT22;27720;51.992;5.890;2023-07-31T15:02:52;19.80;99.90
41557;DHT22;27720;51.992;5.890;2023-07-31T15:05:20;19.80;99.90
41557;DHT22;27720;51.992;5.890;2023-07-31T15:07:49;19.80;99.90
41557;DHT22;27720;51.992;5.890;2023-07-31T15:10:14;19.80;99.90
41557;DHT22;27720;51.992;5.890;2023-07-31T15:12:42;19.80;99.90
41557;DHT22;27720;51.992;5.890;2023-07-31T15:15:08;19.80;99.90
41557;DHT22;27720;51.992;5.890;2023-07-31T15:17:34;19.80;99.90
41557;DHT22;27720;51.992;5.890;2023-07-31T15:20:11;19.90;99.90
41557;DHT22;27720;51.992;5.890;2023-07-31T15:22:38;19.90;99.90
41557;DHT22;27720;51.992;5.890;2023-07-31T15:25:04;19.90;99.90
41557;DHT22;27720;51.992;5.890;2023-07-31T15:27:29;19.90;99.90
41557;DHT22;27720;51.992;5.890;2023-07-31T15:29:55;19.90;99.90
41557;DHT22;27720;51.992;5.890;2023-07-31T15:32:30;20.00;99.90
41557;DHT22;27720;51.992;5.890;2023-07-31T15:34:58;19.90;99.90
41557;DHT22;27720;51.992;5.890;2023-07-31T15:37:24;19.90;99.90
41557;DHT22;27720;51.992;5.890;2023-07-31T15:39:49;19.90;99.90
41557;DHT22;27720;51.992;5.890;2023-07-31T15:42:25;19.90;99.90
41557;DHT22;27720;51.992;5.890;2023-07-31T15:44:50;19.90;99.90
41557;DHT22;27720;51.992;5.890;2023-07-31T15:47:20;19.80;99.90
41557;DHT22;27720;51.992;5.890;2023-07-31T15:49:46;19.80;99.90
41557;DHT22;27720;51.992;5.890;2023-07-31T15:52:12;19.80;99.90
41557;DHT22;27720;51.992;5.890;2023-07-31T15:54:41;19.80;99.90
41557;DHT22;27720;51.992;5.890;2023-07-31T15:57:06;19.80;99.90
41557;DHT22;27720;51.992;5.890;2023-07-31T15:59:32;19.80;99.90
41557;DHT22;27720;51.992;5.890;2023-07-31T16:02:00;19.80;99.90
41557;DHT22;27720;51.992;5.890;2023-07-31T16:04:26;19.90;99.90
41557;DHT22;27720;51.992;5.890;2023-07-31T16:06:52;19.90;99.90
41557;DHT22;27720;51.992;5.890;2023-07-31T16:09:17;19.80;99.90
41557;DHT22;27720;51.992;5.890;2023-07-31T16:11:43;19.90;99.90
41557;DHT22;27720;51.992;5.890;2023-07-31T16:14:09;19.90;99.90
41557;DHT22;27720;51.992;5.890;2023-07-31T16:16:35;20.00;99.90
41557;DHT22;27720;51.992;5.890;2023-07-31T16:19:08;20.00;99.90
41557;DHT22;27720;51.992;5.890;2023-07-31T16:21:34;20.00;99.90
41557;DHT22;27720;51.992;5.890;2023-07-31T16:23:59;19.90;99.90
41557;DHT22;27720;51.992;5.890;2023-07-31T16:26:25;19.90;99.90
41557;DHT22;27720;51.992;5.890;2023-07-31T16:28:54;19.80;99.90
41557;DHT22;27720;51.992;5.890;2023-07-31T16:31:20;19.70;99.90
41557;DHT22;27720;51.992;5.890;2023-07-31T16:33:46;19.70;99.90
41557;DHT22;27720;51.992;5.890;2023-07-31T16:36:12;19.60;99.90
41557;DHT22;27720;51.992;5.890;2023-07-31T16:38:38;19.60;99.90
41557;DHT22;27720;51.992;5.890;2023-07-31T16:41:04;19.60;99.90
41557;DHT22;27720;51.992;5.890;2023-07-31T16:43:30;19.50;99.90
41557;DHT22;27720;51.992;5.890;2023-07-31T16:45:56;19.50;99.90
41557;DHT22;27720;51.992;5.890;2023-07-31T16:48:22;19.50;99.90
41557;DHT22;27720;51.992;5.890;2023-07-31T16:50:48;19.50;99.90
41557;DHT22;27720;51.992;5.890;2023-07-31T16:53:14;19.50;99.90
41557;DHT22;27720;51.992;5.890;2023-07-31T16:55:40;19.50;99.90
41557;DHT22;27720;51.992;5.890;2023-07-31T16:58:06;19.50;99.90
41557;DHT22;27720;51.992;5.890;2023-07-31T17:00:32;19.50;99.90
41557;DHT22;27720;51.992;5.890;2023-07-31T17:02:58;19.40;99.90
41557;DHT22;27720;51.992;5.890;2023-07-31T17:05:23;19.50;99.90
41557;DHT22;27720;51.992;5.890;2023-07-31T17:07:49;19.50;99.90
41557;DHT22;27720;51.992;5.890;2023-07-31T17:10:15;19.40;99.90
41557;DHT22;27720;51.992;5.890;2023-07-31T17:12:41;19.40;99.90
41557;DHT22;27720;51.992;5.890;2023-07-31T17:15:10;19.40;99.90
41557;DHT22;27720;51.992;5.890;2023-07-31T17:17:38;19.40;99.90
41557;DHT22;27720;51.992;5.890;2023-07-31T17:20:05;19.40;99.90
41557;DHT22;27720;51.992;5.890;2023-07-31T17:22:31;19.40;99.90
41557;DHT22;27720;51.992;5.890;2023-07-31T17:24:56;19.40;99.90
41557;DHT22;27720;51.992;5.890;2023-07-31T17:27:22;19.40;99.90
41557;DHT22;27720;51.992;5.890;2023-07-31T17:29:49;19.40;99.90
41557;DHT22;27720;51.992;5.890;2023-07-31T17:32:15;19.40;99.90
41557;DHT22;27720;51.992;5.890;2023-07-31T17:34:44;19.40;99.90
41557;DHT22;27720;51.992;5.890;2023-07-31T17:37:14;19.30;99.90
41557;DHT22;27720;51.992;5.890;2023-07-31T17:39:44;19.30;99.90
41557;DHT22;27720;51.992;5.890;2023-07-31T17:42:12;19.30;99.90
41557;DHT22;27720;51.992;5.890;2023-07-31T17:44:42;19.30;99.90
41557;DHT22;27720;51.992;5.890;2023-07-31T17:47:10;19.30;99.90
41557;DHT22;27720;51.992;5.890;2023-07-31T17:49:45;19.30;99.90
41557;DHT22;27720;51.992;5.890;2023-07-31T17:52:13;19.30;99.90
41557;DHT22;27720;51.992;5.890;2023-07-31T17:55:15;19.30;99.90
41557;DHT22;27720;51.992;5.890;2023-07-31T17:57:44;19.30;99.90
41557;DHT22;27720;51.992;5.890;2023-07-31T18:00:11;19.20;99.90
41557;DHT22;27720;51.992;5.890;2023-07-31T18:02:37;19.20;99.90
41557;DHT22;27720;51.992;5.890;2023-07-31T18:05:05;19.20;99.90
41557;DHT22;27720;51.992;5.890;2023-07-31T18:07:31;19.20;99.90
41557;DHT22;27720;51.992;5.890;2023-07-31T18:09:57;19.30;99.90
41557;DHT22;27720;51.992;5.890;2023-07-31T18:12:25;19.20;99.90
41557;DHT22;27720;51.992;5.890;2023-07-31T18:14:58;19.20;99.90
41557;DHT22;27720;51.992;5.890;2023-07-31T18:17:27;19.20;99.90
41557;DHT22;27720;51.992;5.890;2023-07-31T18:20:03;19.20;99.90
41557;DHT22;27720;51.992;5.890;2023-07-31T18:22:42;19.20;99.90
41557;DHT22;27720;51.992;5.890;2023-07-31T18:25:17;19.20;99.90
41557;DHT22;27720;51.992;5.890;2023-07-31T18:28:02;19.20;99.90
41557;DHT22;27720;51.992;5.890;2023-07-31T18:30:35;19.20;99.90
41557;DHT22;27720;51.992;5.890;2023-07-31T18:37:12;19.10;99.90
41557;DHT22;27720;51.992;5.890;2023-07-31T18:39:52;19.10;99.90
41557;DHT22;27720;51.992;5.890;2023-07-31T18:42:31;19.10;99.90
41557;DHT22;27720;51.992;5.890;2023-07-31T18:45:10;19.10;99.90
41557;DHT22;27720;51.992;5.890;2023-07-31T18:47:36;19.10;99.90
41557;DHT22;27720;51.992;5.890;2023-07-31T18:50:02;19.10;99.90
41557;DHT22;27720;51.992;5.890;2023-07-31T18:52:30;19.10;99.90
41557;DHT22;27720;51.992;5.890;2023-07-31T18:54:56;19.20;99.90
41557;DHT22;27720;51.992;5.890;2023-07-31T18:57:22;19.20;99.90
41557;DHT22;27720;51.992;5.890;2023-07-31T18:59:50;19.30;99.90
41557;DHT22;27720;51.992;5.890;2023-07-31T19:02:16;19.30;99.90
41557;DHT22;27720;51.992;5.890;2023-07-31T19:04:44;19.20;99.90
41557;DHT22;27720;51.992;5.890;2023-07-31T19:07:10;19.30;99.90
41557;DHT22;27720;51.992;5.890;2023-07-31T19:09:35;19.30;99.90
41557;DHT22;27720;51.992;5.890;2023-07-31T19:12:03;19.20;99.90
41557;DHT22;27720;51.992;5.890;2023-07-31T19:14:29;19.20;99.90
41557;DHT22;27720;51.992;5.890;2023-07-31T19:16:57;19.30;99.90
41557;DHT22;27720;51.992;5.890;2023-07-31T19:19:23;19.30;99.90
41557;DHT22;27720;51.992;5.890;2023-07-31T19:21:49;19.40;99.90
41557;DHT22;27720;51.992;5.890;2023-07-31T19:24:15;19.30;99.90
41557;DHT22;27720;51.992;5.890;2023-07-31T19:26:41;19.30;99.90
41557;DHT22;27720;51.992;5.890;2023-07-31T19:29:07;19.30;99.90
41557;DHT22;27720;51.992;5.890;2023-07-31T19:31:33;19.20;99.90
41557;DHT22;27720;51.992;5.890;2023-07-31T19:33:58;19.30;99.90
41557;DHT22;27720;51.992;5.890;2023-07-31T19:36:26;19.40;99.90
41557;DHT22;27720;51.992;5.890;2023-07-31T19:38:52;19.40;99.90
41557;DHT22;27720;51.992;5.890;2023-07-31T19:41:17;19.40;99.90
41557;DHT22;27720;51.992;5.890;2023-07-31T19:43:46;19.40;99.90
41557;DHT22;27720;51.992;5.890;2023-07-31T19:46:12;19.40;99.90
41557;DHT22;27720;51.992;5.890;2023-07-31T19:48:37;19.40;99.90
41557;DHT22;27720;51.992;5.890;2023-07-31T19:51:05;19.30;99.90
41557;DHT22;27720;51.992;5.890;2023-07-31T19:53:34;19.30;99.90
41557;DHT22;27720;51.992;5.890;2023-07-31T19:55:59;19.30;99.90
41557;DHT22;27720;51.992;5.890;2023-07-31T19:58:28;19.30;99.90
41557;DHT22;27720;51.992;5.890;2023-07-31T20:00:59;19.30;99.90
41557;DHT22;27720;51.992;5.890;2023-07-31T20:03:25;19.20;99.90
41557;DHT22;27720;51.992;5.890;2023-07-31T20:05:51;19.20;99.90
41557;DHT22;27720;51.992;5.890;2023-07-31T20:08:17;19.20;99.90
41557;DHT22;27720;51.992;5.890;2023-07-31T20:10:44;19.30;99.90
41557;DHT22;27720;51.992;5.890;2023-07-31T20:13:10;19.30;99.90
41557;DHT22;27720;51.992;5.890;2023-07-31T20:15:39;19.20;99.90
41557;DHT22;27720;51.992;5.890;2023-07-31T20:18:05;19.30;99.90
41557;DHT22;27720;51.992;5.890;2023-07-31T20:20:31;19.30;99.90
41557;DHT22;27720;51.992;5.890;2023-07-31T20:22:58;19.20;99.90
41557;DHT22;27720;51.992;5.890;2023-07-31T20:25:24;19.20;99.90
41557;DHT22;27720;51.992;5.890;2023-07-31T20:27:49;19.30;99.90
41557;DHT22;27720;51.992;5.890;2023-07-31T20:30:15;19.30;99.90
41557;DHT22;27720;51.992;5.890;2023-07-31T20:32:41;19.20;99.90
41557;DHT22;27720;51.992;5.890;2023-07-31T20:35:07;19.20;99.90
41557;DHT22;27720;51.992;5.890;2023-07-31T20:37:33;19.20;99.90
41557;DHT22;27720;51.992;5.890;2023-07-31T20:39:59;19.20;99.90
41557;DHT22;27720;51.992;5.890;2023-07-31T20:42:30;19.10;99.90
41557;DHT22;27720;51.992;5.890;2023-07-31T20:44:56;19.10;99.90
41557;DHT22;27720;51.992;5.890;2023-07-31T20:47:22;19.10;99.90
41557;DHT22;27720;51.992;5.890;2023-07-31T20:49:48;19.10;99.90
41557;DHT22;27720;51.992;5.890;2023-07-31T20:52:15;19.10;99.90
41557;DHT22;27720;51.992;5.890;2023-07-31T20:54:42;19.10;99.90
41557;DHT22;27720;51.992;5.890;2023-07-31T20:57:08;19.10;99.90
41557;DHT22;27720;51.992;5.890;2023-07-31T20:59:34;19.10;99.90
41557;DHT22;27720;51.992;5.890;2023-07-31T21:01:59;19.00;99.90
41557;DHT22;27720;51.992;5.890;2023-07-31T21:04:36;19.10;99.90
41557;DHT22;27720;51.992;5.890;2023-07-31T21:07:05;19.10;99.90
41557;DHT22;27720;51.992;5.890;2023-07-31T21:09:35;19.00;99.90
41557;DHT22;27720;51.992;5.890;2023-07-31T21:12:04;19.00;99.90
41557;DHT22;27720;51.992;5.890;2023-07-31T21:14:30;19.00;99.90
41557;DHT22;27720;51.992;5.890;2023-07-31T21:16:56;18.90;99.90
41557;DHT22;27720;51.992;5.890;2023-07-31T21:19:22;18.90;99.90
41557;DHT22;27720;51.992;5.890;2023-07-31T21:21:48;19.00;99.90
41557;DHT22;27720;51.992;5.890;2023-07-31T21:24:14;19.00;99.90
41557;DHT22;27720;51.992;5.890;2023-07-31T21:26:39;18.90;99.90
41557;DHT22;27720;51.992;5.890;2023-07-31T21:29:05;19.00;99.90
41557;DHT22;27720;51.992;5.890;2023-07-31T21:31:31;18.90;99.90
41557;DHT22;27720;51.992;5.890;2023-07-31T21:33:57;18.90;99.90
41557;DHT22;27720;51.992;5.890;2023-07-31T21:36:24;18.90;99.90
41557;DHT22;27720;51.992;5.890;2023-07-31T21:38:50;18.90;99.90
41557;DHT22;27720;51.992;5.890;2023-07-31T21:41:15;18.90;99.90
41557;DHT22;27720;51.992;5.890;2023-07-31T21:43:41;18.80;99.90
41557;DHT22;27720;51.992;5.890;2023-07-31T21:46:08;18.80;99.90
41557;DHT22;27720;51.992;5.890;2023-07-31T21:48:35;18.90;99.90
41557;DHT22;27720;51.992;5.890;2023-07-31T21:51:01;18.80;99.90
41557;DHT22;27720;51.992;5.890;2023-07-31T21:53:27;18.80;99.90
41557;DHT22;27720;51.992;5.890;2023-07-31T21:55:52;18.90;99.90
41557;DHT22;27720;51.992;5.890;2023-07-31T21:58:19;18.90;99.90
41557;DHT22;27720;51.992;5.890;2023-07-31T22:00:44;18.80;99.90
41557;DHT22;27720;51.992;5.890;2023-07-31T22:03:12;18.80;99.90
41557;DHT22;27720;51.992;5.890;2023-07-31T22:05:37;18.80;99.90
41557;DHT22;27720;51.992;5.890;2023-07-31T22:08:03;18.80;99.90
41557;DHT22;27720;51.992;5.890;2023-07-31T22:10:29;18.80;99.90
41557;DHT22;27720;51.992;5.890;2023-07-31T22:12:58;18.80;99.90
41557;DHT22;27720;51.992;5.890;2023-07-31T22:15:24;18.80;99.90
41557;DHT22;27720;51.992;5.890;2023-07-31T22:17:50;18.80;99.90
41557;DHT22;27720;51.992;5.890;2023-07-31T22:20:16;18.70;99.90
41557;DHT22;27720;51.992;5.890;2023-07-31T22:22:42;18.80;99.90
41557;DHT22;27720;51.992;5.890;2023-07-31T22:25:08;18.80;99.90
41557;DHT22;27720;51.992;5.890;2023-07-31T22:27:34;18.80;99.90
41557;DHT22;27720;51.992;5.890;2023-07-31T22:30:00;18.80;99.90
41557;DHT22;27720;51.992;5.890;2023-07-31T22:32:26;18.80;99.90
41557;DHT22;27720;51.992;5.890;2023-07-31T22:34:51;18.80;99.90
41557;DHT22;27720;51.992;5.890;2023-07-31T22:37:17;18.80;99.90
41557;DHT22;27720;51.992;5.890;2023-07-31T22:39:43;18.70;99.90
41557;DHT22;27720;51.992;5.890;2023-07-31T22:42:10;18.70;99.90
41557;DHT22;27720;51.992;5.890;2023-07-31T22:44:38;18.70;99.90
41557;DHT22;27720;51.992;5.890;2023-07-31T22:47:11;18.70;99.90
41557;DHT22;27720;51.992;5.890;2023-07-31T22:49:38;18.70;99.90
41557;DHT22;27720;51.992;5.890;2023-07-31T22:52:08;18.70;99.90
41557;DHT22;27720;51.992;5.890;2023-07-31T22:54:36;18.70;99.90
41557;DHT22;27720;51.992;5.890;2023-07-31T22:57:02;18.70;99.90
41557;DHT22;27720;51.992;5.890;2023-07-31T22:59:28;18.70;99.90
41557;DHT22;27720;51.992;5.890;2023-07-31T23:01:54;18.70;99.90
41557;DHT22;27720;51.992;5.890;2023-07-31T23:04:20;18.70;99.90
41557;DHT22;27720;51.992;5.890;2023-07-31T23:06:51;18.70;99.90
41557;DHT22;27720;51.992;5.890;2023-07-31T23:09:18;18.70;99.90
41557;DHT22;27720;51.992;5.890;2023-07-31T23:11:44;18.70;99.90
41557;DHT22;27720;51.992;5.890;2023-07-31T23:14:09;18.60;99.90
41557;DHT22;27720;51.992;5.890;2023-07-31T23:16:35;18.70;99.90
41557;DHT22;27720;51.992;5.890;2023-07-31T23:19:01;18.70;99.90
41557;DHT22;27720;51.992;5.890;2023-07-31T23:21:28;18.70;99.90
41557;DHT22;27720;51.992;5.890;2023-07-31T23:23:54;18.70;99.90
41557;DHT22;27720;51.992;5.890;2023-07-31T23:26:21;18.70;99.90
41557;DHT22;27720;51.992;5.890;2023-07-31T23:28:47;18.70;99.90
41557;DHT22;27720;51.992;5.890;2023-07-31T23:31:15;18.60;99.90
41557;DHT22;27720;51.992;5.890;2023-07-31T23:33:41;18.60;99.90
41557;DHT22;27720;51.992;5.890;2023-07-31T23:36:11;18.70;99.90
41557;DHT22;27720;51.992;5.890;2023-07-31T23:38:38;18.60;99.90
41557;DHT22;27720;51.992;5.890;2023-07-31T23:41:04;18.60;99.90
41557;DHT22;27720;51.992;5.890;2023-07-31T23:43:30;18.60;99.90
41557;DHT22;27720;51.992;5.890;2023-07-31T23:45:55;18.60;99.90
41557;DHT22;27720;51.992;5.890;2023-07-31T23:48:21;18.50;99.90
41557;DHT22;27720;51.992;5.890;2023-07-31T23:50:49;18.60;99.90
41557;DHT22;27720;51.992;5.890;2023-07-31T23:53:16;18.60;99.90
41557;DHT22;27720;51.992;5.890;2023-07-31T23:55:41;18.60;99.90
41557;DHT22;27720;51.992;5.890;2023-07-31T23:58:08;18.60;99.90
